createdAt,value
2023-03-10T00:04:55.096Z,7.75
2023-03-10T00:09:57.877Z,6.00
2023-03-10T00:15:02.128Z,7.50
2023-03-10T00:20:10.548Z,6.25
2023-03-10T00:25:13.391Z,6.75
2023-03-10T00:30:18.014Z,7.25
2023-03-10T00:35:20.778Z,7.50
2023-03-10T00:40:24.016Z,7.25
2023-03-10T00:45:28.414Z,7.50
2023-03-10T00:50:31.096Z,8.00
2023-03-10T00:55:33.808Z,8.00
2023-03-10T01:00:37.925Z,6.00
2023-03-10T01:05:40.638Z,5.75
2023-03-10T01:10:45.115Z,6.75
2023-03-10T01:15:50.501Z,6.25
2023-03-10T01:20:53.296Z,8.25
2023-03-10T01:25:56.518Z,5.50
2023-03-10T01:31:00.977Z,7.00
2023-03-10T01:36:07.922Z,5.00
2023-03-10T01:41:11.570Z,8.25
2023-03-10T01:46:38.427Z,7.00
2023-03-10T01:51:57.739Z,6.50
2023-03-10T01:57:00.965Z,4.00
2023-03-10T02:02:05.902Z,6.25
2023-03-10T02:07:09.620Z,4.50
2023-03-10T02:12:15.085Z,6.50
2023-03-10T02:17:24.079Z,4.00
2023-03-10T02:22:27.633Z,5.75
2023-03-10T02:27:36.422Z,4.00
2023-03-10T02:32:43.076Z,4.00
2023-03-10T02:37:46.208Z,5.25
2023-03-10T02:42:51.402Z,5.00
2023-03-10T02:47:54.252Z,5.50
2023-03-10T02:53:04.449Z,6.00
2023-03-10T02:58:09.103Z,5.50
2023-03-10T03:03:12.697Z,5.50
2023-03-10T03:08:15.996Z,6.00
2023-03-10T03:13:20.355Z,4.75
2023-03-10T03:18:23.517Z,4.75
2023-03-10T03:23:27.052Z,4.25
2023-03-10T03:28:31.801Z,6.00
2023-03-10T03:33:34.799Z,5.00
2023-03-10T03:38:38.025Z,3.50
2023-03-10T03:43:42.293Z,5.25
2023-03-10T03:48:45.060Z,4.00
2023-03-10T03:53:48.711Z,4.00
2023-03-10T03:58:53.034Z,4.00
2023-03-10T04:03:56.341Z,4.25
2023-03-10T04:08:59.450Z,3.00
2023-03-10T04:14:05.921Z,3.50
2023-03-10T04:19:09.497Z,3.50
2023-03-10T04:24:16.604Z,5.50
2023-03-10T04:29:24.285Z,5.50
2023-03-10T04:34:28.716Z,1.75
2023-03-10T04:39:31.796Z,4.25
2023-03-10T04:44:36.455Z,3.50
2023-03-10T04:49:41.453Z,4.00
2023-03-10T04:54:47.518Z,5.25
2023-03-10T04:59:52.580Z,3.00
2023-03-10T05:04:55.374Z,2.75
2023-03-10T05:09:59.015Z,4.50
2023-03-10T05:15:05.995Z,2.00
2023-03-10T05:20:10.913Z,4.25
2023-03-10T05:25:14.029Z,2.50
2023-03-10T05:30:19.639Z,3.00
2023-03-10T05:35:25.663Z,3.75
2023-03-10T05:40:28.650Z,2.00
2023-03-10T05:45:33.225Z,2.75
2023-03-10T05:50:35.988Z,2.00
2023-03-10T05:55:38.738Z,2.75
2023-03-10T06:00:42.880Z,3.50
2023-03-10T06:05:45.969Z,2.75
2023-03-10T06:10:48.764Z,1.25
2023-03-10T06:15:54.500Z,2.00
2023-03-10T06:20:57.595Z,2.00
2023-03-10T06:26:02.331Z,4.00
2023-03-10T06:31:09.011Z,3.50
2023-03-10T06:36:13.223Z,3.00
2023-03-10T06:41:22.297Z,4.00
2023-03-10T06:46:26.591Z,1.50
2023-03-10T06:51:29.406Z,2.25
2023-03-10T06:56:32.492Z,3.50
2023-03-10T07:01:36.554Z,4.00
2023-03-10T07:06:39.949Z,2.00
2023-03-10T07:11:42.710Z,2.50
2023-03-10T07:16:47.223Z,3.25
2023-03-10T07:21:50.245Z,2.00
2023-03-10T07:26:52.969Z,1.75
2023-03-10T07:31:57.138Z,1.00
2023-03-10T07:37:00.217Z,2.50
2023-03-10T07:42:02.982Z,4.00
2023-03-10T07:47:09.564Z,2.00
2023-03-10T07:52:12.265Z,2.50
2023-03-10T07:57:16.340Z,1.25
2023-03-10T08:02:20.434Z,1.00
2023-03-10T08:07:23.259Z,1.00
2023-03-10T08:12:26.045Z,1.25
2023-03-10T08:17:31.193Z,0.00
2023-03-10T08:22:33.948Z,0.00
2023-03-10T08:27:36.677Z,0.00
2023-03-10T08:32:41.362Z,0.00
2023-03-10T08:37:44.231Z,0.00
2023-03-10T08:42:48.379Z,1.00
2023-03-10T08:47:52.690Z,2.00
2023-03-10T08:52:55.413Z,1.00
2023-03-10T08:57:58.397Z,0.00
2023-03-10T09:03:02.501Z,0.00
2023-03-10T09:08:07.998Z,0.00
2023-03-10T09:13:14.315Z,0.00
2023-03-10T09:18:18.595Z,0.50
2023-03-10T09:23:21.374Z,0.00
2023-03-10T09:28:24.109Z,0.00
2023-03-10T09:33:28.361Z,0.25
2023-03-10T09:38:31.092Z,0.00
2023-03-10T09:43:39.219Z,0.00
2023-03-10T09:48:51.345Z,0.00
2023-03-10T09:54:06.521Z,0.50
2023-03-10T09:59:16.757Z,1.50
2023-03-10T10:04:26.056Z,1.25
2023-03-10T10:09:42.095Z,0.00
2023-03-10T10:14:55.257Z,0.00
2023-03-10T10:20:01.131Z,0.00
2023-03-10T10:25:19.424Z,1.00
2023-03-10T10:30:34.813Z,0.00
2023-03-10T10:35:41.256Z,0.00
2023-03-10T10:40:49.965Z,0.00
2023-03-10T10:45:55.352Z,0.75
2023-03-10T10:50:59.580Z,0.00
2023-03-10T10:56:05.786Z,0.00
2023-03-10T11:01:12.363Z,0.00
2023-03-10T11:06:27.007Z,0.00
2023-03-10T11:11:39.651Z,0.00
2023-03-10T11:16:51.081Z,0.00
2023-03-10T11:22:02.106Z,0.00
2023-03-10T11:27:13.879Z,0.00
2023-03-10T11:32:23.695Z,0.00
2023-03-10T11:37:34.500Z,0.50
2023-03-10T11:42:44.755Z,0.00
2023-03-10T11:47:57.702Z,0.00
2023-03-10T11:53:06.520Z,0.00
2023-03-10T11:58:24.343Z,0.00
2023-03-10T12:03:41.390Z,0.00
2023-03-10T12:08:47.604Z,0.00
2023-03-10T12:13:53.422Z,0.00
2023-03-10T12:18:56.510Z,0.25
2023-03-10T12:24:02.725Z,0.50
2023-03-10T12:29:32.068Z,1.00
2023-03-10T12:34:34.953Z,0.00
2023-03-10T12:39:43.548Z,0.00
2023-03-10T12:44:52.071Z,0.75
2023-03-10T12:49:59.132Z,0.50
2023-03-10T12:55:17.793Z,0.00
2023-03-10T13:00:30.810Z,0.25
2023-03-10T13:05:35.720Z,0.00
2023-03-10T13:10:43.680Z,1.00
2023-03-10T13:15:58.625Z,2.50
2023-03-10T13:21:02.191Z,8.25
2023-03-10T13:26:07.892Z,5.50
2023-03-10T13:31:20.165Z,2.00
2023-03-10T13:36:41.015Z,4.25
2023-03-10T13:41:48.115Z,6.25
2023-03-10T13:46:52.760Z,3.25
2023-03-10T13:51:57.624Z,5.00
2023-03-10T13:57:08.582Z,4.75
2023-03-10T14:02:18.732Z,3.75
2023-03-10T14:07:23.392Z,5.00
2023-03-10T14:12:38.056Z,5.25
2023-03-10T14:17:41.786Z,4.25
2023-03-10T14:22:44.655Z,3.75
2023-03-10T14:27:57.492Z,3.50
2023-03-10T14:33:02.141Z,5.25
2023-03-10T14:38:04.937Z,4.50
2023-03-10T14:43:16.693Z,1.75
2023-03-10T14:48:22.275Z,12.00
2023-03-10T14:53:28.035Z,11.25
2023-03-10T14:58:35.688Z,10.25
2023-03-10T15:03:38.485Z,12.00
2023-03-10T15:08:41.628Z,9.00
2023-03-10T15:13:45.816Z,9.75
2023-03-10T15:18:49.167Z,6.00
2023-03-10T15:23:51.856Z,6.50
2023-03-10T15:28:55.962Z,7.00
2023-03-10T15:33:58.722Z,8.25
2023-03-10T15:39:01.668Z,7.25
2023-03-10T15:44:06.404Z,7.50
2023-03-10T15:49:09.302Z,4.75
2023-03-10T15:54:12.754Z,7.50
2023-03-10T15:59:17.455Z,5.75
2023-03-10T16:04:20.472Z,3.00
2023-03-10T16:09:23.433Z,0.25
2023-03-10T16:14:28.353Z,0.00
2023-03-10T16:19:31.344Z,48.40
2023-03-10T16:24:34.242Z,226.00
2023-03-10T16:29:40.144Z,302.00
2023-03-10T16:34:42.859Z,285.67
2023-03-10T16:39:45.667Z,359.50
2023-03-10T16:44:50.068Z,427.00
2023-03-10T16:49:54.343Z,352.67
2023-03-10T16:54:58.396Z,325.33
2023-03-10T17:00:05.403Z,292.67
2023-03-10T17:05:09.982Z,250.75
2023-03-10T17:10:13.087Z,238.20
2023-03-10T17:15:17.294Z,223.80
2023-03-10T17:20:20.299Z,210.20
2023-03-10T17:25:23.341Z,207.80
2023-03-10T17:30:27.447Z,199.80
2023-03-10T17:35:30.351Z,191.40
2023-03-10T17:40:34.679Z,181.80
2023-03-10T17:45:38.729Z,181.00
2023-03-10T17:50:41.507Z,179.20
2023-03-10T17:55:44.340Z,174.60
2023-03-10T18:00:48.860Z,175.20
2023-03-10T18:05:51.651Z,168.60
2023-03-10T18:11:00.851Z,173.20
2023-03-10T18:16:05.466Z,162.20
2023-03-10T18:21:09.476Z,148.40
2023-03-10T18:26:14.260Z,143.00
2023-03-10T18:31:20.704Z,127.60
2023-03-10T18:36:24.830Z,131.80
2023-03-10T18:41:30.343Z,125.00
2023-03-10T18:46:34.674Z,111.80
2023-03-10T18:51:37.466Z,105.00
2023-03-10T18:56:40.214Z,102.40
2023-03-10T19:01:44.334Z,96.80
2023-03-10T19:06:47.320Z,93.60
2023-03-10T19:11:50.769Z,87.40
2023-03-10T19:16:54.856Z,86.00
2023-03-10T19:21:57.743Z,79.20
2023-03-10T19:27:03.969Z,77.60
2023-03-10T19:32:08.558Z,78.40
2023-03-10T19:37:11.314Z,75.60
2023-03-10T19:42:14.080Z,72.40
2023-03-10T19:47:19.238Z,70.20
2023-03-10T19:52:22.041Z,65.60
2023-03-10T19:57:24.896Z,69.00
2023-03-10T20:02:29.544Z,66.40
2023-03-10T20:07:32.314Z,60.80
2023-03-10T20:12:35.120Z,59.80
2023-03-10T20:17:39.478Z,59.60
2023-03-10T20:22:46.329Z,57.60
2023-03-10T20:27:51.005Z,58.20
2023-03-10T20:32:55.528Z,57.40
2023-03-10T20:37:59.006Z,58.60
2023-03-10T20:43:01.819Z,49.20
2023-03-10T20:48:06.463Z,52.60
2023-03-10T20:53:09.220Z,52.00
2023-03-10T20:58:11.996Z,52.20
2023-03-10T21:03:16.282Z,47.00
2023-03-10T21:08:20.032Z,45.80
2023-03-10T21:13:22.974Z,49.40
2023-03-10T21:18:26.998Z,44.20
2023-03-10T21:23:29.777Z,42.20
2023-03-10T21:28:43.483Z,40.20
2023-03-10T21:33:47.814Z,44.20
2023-03-10T21:38:51.773Z,40.20
2023-03-10T21:43:55.356Z,43.00
2023-03-10T21:49:00.308Z,42.40
2023-03-10T21:54:04.058Z,41.40
2023-03-10T21:59:07.377Z,38.00
2023-03-10T22:04:12.947Z,40.60
2023-03-10T22:09:15.895Z,37.60
2023-03-10T22:14:18.780Z,35.60
2023-03-10T22:19:22.930Z,28.60
2023-03-10T22:24:26.110Z,26.20
2023-03-10T22:29:28.781Z,26.75
2023-03-10T22:34:32.996Z,23.75
2023-03-10T22:39:38.503Z,21.50
2023-03-10T22:44:41.398Z,26.25
2023-03-10T22:49:46.305Z,23.75
2023-03-10T22:54:49.076Z,18.75
2023-03-10T22:59:51.908Z,15.75
2023-03-10T23:04:56.192Z,16.25
2023-03-10T23:09:59.152Z,16.50
2023-03-10T23:15:05.137Z,13.25
2023-03-10T23:20:13.916Z,16.00
2023-03-10T23:25:18.860Z,15.50
2023-03-10T23:30:21.879Z,16.00
2023-03-10T23:35:29.272Z,12.25
2023-03-10T23:40:32.716Z,15.50
2023-03-10T23:45:37.843Z,11.00
2023-03-10T23:50:43.436Z,11.25
2023-03-10T23:55:47.875Z,12.25
